Time;durP1;ratioP1;P1;durP2;ratioP2;P2;SDS_P1;SDS_P2;PMS_P1;PMS_P2;Temp;Humidity;BMP_temperature;BMP_pressure;BME280_temperature;BME280_humidity;BME280_pressure;Samples;Min_cycle;Max_cycle;Signal;HPM_P1;HPM_P2
2022/07/28 00:01:38;;;;;;;0.10;0.10;;;15.50;62.40;;;;;;5098088;28;20042;-79
2022/07/28 00:04:04;;;;;;;0.20;0.20;;;15.50;62.40;;;;;;5079915;28;20038;-79
2022/07/28 00:06:30;;;;;;;0.20;0.20;;;15.60;62.40;;;;;;5097697;28;20031;-79
2022/07/28 00:08:56;;;;;;;0.20;0.20;;;15.50;62.40;;;;;;5098348;28;20494;-79
2022/07/28 00:11:22;;;;;;;0.20;0.20;;;15.50;62.40;;;;;;5114737;28;20050;-79
2022/07/28 00:13:48;;;;;;;0.10;0.10;;;15.50;62.40;;;;;;5096582;28;20036;-78
2022/07/28 00:16:14;;;;;;;0.10;0.10;;;15.50;62.30;;;;;;5079769;28;20051;-79
2022/07/28 00:18:40;;;;;;;0.20;0.13;;;15.50;62.40;;;;;;5114585;28;20051;-78
2022/07/28 00:21:06;;;;;;;0.30;0.20;;;15.50;62.40;;;;;;5114496;28;20074;-79
2022/07/28 00:23:31;;;;;;;0.20;0.20;;;15.50;63.00;;;;;;5079623;28;20393;-79
2022/07/28 00:25:57;;;;;;;0.20;0.20;;;15.50;62.40;;;;;;5080629;28;20036;-79
2022/07/28 00:28:23;;;;;;;0.40;0.20;;;15.40;62.40;;;;;;5062606;28;20095;-79
2022/07/28 00:30:48;;;;;;;0.20;0.20;;;15.40;62.40;;;;;;5097857;28;20051;-78
2022/07/28 00:33:14;;;;;;;0.20;0.13;;;15.40;62.40;;;;;;5099274;28;20043;-79
2022/07/28 00:35:40;;;;;;;0.60;0.20;;;15.50;62.40;;;;;;5115180;28;20043;-78
2022/07/28 00:38:06;;;;;;;0.30;0.30;;;15.40;62.40;;;;;;5095687;28;20382;-78
2022/07/28 00:43:07;;;;;;;0.10;0.10;;;15.40;62.50;;;;;;5114082;28;20097;-79
2022/07/28 00:45:33;;;;;;;0.20;0.20;;;15.30;62.50;;;;;;5094065;28;20044;-79
2022/07/28 00:47:59;;;;;;;0.10;0.10;;;15.40;62.60;;;;;;5078918;28;20500;-79
2022/07/28 00:50:25;;;;;;;0.10;0.10;;;15.30;62.60;;;;;;5095591;28;20473;-79
2022/07/28 00:52:51;;;;;;;0.20;0.20;;;15.20;62.50;;;;;;5114355;28;20040;-79
2022/07/28 00:55:18;;;;;;;0.38;0.20;;;15.30;62.70;;;;;;5113807;28;20086;-79
2022/07/28 00:57:43;;;;;;;0.20;0.20;;;15.20;62.60;;;;;;5097161;28;20438;-79
2022/07/28 01:00:10;;;;;;;0.32;0.20;;;15.30;62.70;;;;;;5096903;28;20172;-78
2022/07/28 01:02:35;;;;;;;0.25;0.20;;;15.30;62.70;;;;;;5093664;28;20073;-79
2022/07/28 01:05:01;;;;;;;0.20;0.20;;;15.30;62.80;;;;;;5061211;28;20085;-78
2022/07/28 01:07:57;;;;;;;0.10;0.10;;;15.30;62.90;;;;;;5095945;28;20480;-79
2022/07/28 01:10:40;;;;;;;0.75;0.20;;;15.20;62.90;;;;;;5095276;28;20047;-79
2022/07/28 01:13:17;;;;;;;0.20;0.20;;;15.20;62.90;;;;;;5114041;28;20075;-79
2022/07/28 01:15:56;;;;;;;0.20;0.20;;;15.20;63.00;;;;;;5113623;28;20050;-79
2022/07/28 01:18:31;;;;;;;0.15;0.15;;;15.10;62.90;;;;;;5079129;28;20489;-79
2022/07/28 01:21:03;;;;;;;0.10;0.10;;;15.20;63.10;;;;;;5078908;28;20489;-78
2022/07/28 01:23:52;;;;;;;0.20;0.20;;;15.20;63.20;;;;;;5096211;28;20035;-78
2022/07/28 01:26:37;;;;;;;0.22;0.20;;;15.10;63.20;;;;;;5113903;28;20515;-79
2022/07/28 01:29:26;;;;;;;0.10;0.10;;;15.10;63.30;;;;;;5096579;28;20478;-79
2022/07/28 01:32:01;;;;;;;0.75;0.20;;;15.00;63.30;;;;;;5113521;28;20073;-79
2022/07/28 01:34:39;;;;;;;0.10;0.10;;;15.00;63.40;;;;;;5113719;28;20040;-79
2022/07/28 01:37:11;;;;;;;0.20;0.20;;;14.90;63.50;;;;;;5079461;28;20048;-79
2022/07/28 01:39:40;;;;;;;0.43;0.20;;;14.90;63.60;;;;;;5096241;28;20048;-78
2022/07/28 01:42:08;;;;;;;0.10;0.10;;;14.90;63.70;;;;;;5094679;28;20057;-79
2022/07/28 01:44:39;;;;;;;0.20;0.20;;;14.90;63.70;;;;;;5095251;28;20043;-79
2022/07/28 01:47:06;;;;;;;0.32;0.30;;;14.90;63.80;;;;;;5078013;28;20081;-79
2022/07/28 01:49:34;;;;;;;0.10;0.10;;;14.80;63.90;;;;;;5094474;28;20040;-79
2022/07/28 01:52:03;;;;;;;0.10;0.10;;;14.80;64.00;;;;;;5061503;28;20043;-79
2022/07/28 01:54:30;;;;;;;0.10;0.10;;;14.80;64.10;;;;;;5094752;28;20047;-79
2022/07/28 01:56:59;;;;;;;0.10;0.10;;;14.70;64.10;;;;;;5095007;28;20046;-79
2022/07/28 01:59:28;;;;;;;0.20;0.10;;;14.70;64.20;;;;;;5078214;28;20043;-79
2022/07/28 02:01:54;;;;;;;0.40;0.20;;;14.60;64.20;;;;;;5112952;28;20118;-79
2022/07/28 02:04:21;;;;;;;0.30;0.25;;;14.60;64.30;;;;;;5077819;28;20047;-79
2022/07/28 02:06:48;;;;;;;0.40;0.20;;;14.60;64.40;;;;;;5077774;28;20401;-79
2022/07/28 02:09:17;;;;;;;0.30;0.20;;;14.60;64.50;;;;;;5113364;28;20028;-79
2022/07/28 02:11:45;;;;;;;0.50;0.28;;;14.60;64.60;;;;;;5092871;28;20043;-79
2022/07/28 02:14:21;;;;;;;0.15;0.15;;;14.40;64.50;;;;;;5112321;28;20448;-79
2022/07/28 02:16:54;;;;;;;0.25;0.20;;;14.50;64.60;;;;;;5094265;28;20131;-79
2022/07/28 02:19:21;;;;;;;0.13;0.13;;;14.50;64.70;;;;;;5093961;28;20039;-79
2022/07/28 02:21:48;;;;;;;0.30;0.22;;;14.50;65.50;;;;;;5094607;28;20039;-79
2022/07/28 02:24:18;;;;;;;0.20;0.20;;;14.40;64.90;;;;;;5094808;28;20040;-79
2022/07/28 02:26:50;;;;;;;0.10;0.10;;;14.30;65.00;;;;;;5094344;28;20107;-79
2022/07/28 02:29:20;;;;;;;0.40;0.20;;;14.30;65.00;;;;;;5094610;28;20489;-78
2022/07/28 02:31:53;;;;;;;0.55;0.25;;;14.30;65.20;;;;;;5112705;28;20043;-78
2022/07/28 02:34:21;;;;;;;0.10;0.10;;;14.30;65.20;;;;;;5112451;28;20419;-78
2022/07/28 02:36:56;;;;;;;0.10;0.10;;;14.20;65.30;;;;;;5094259;28;20450;-79
2022/07/28 02:39:27;;;;;;;0.28;0.20;;;14.20;65.40;;;;;;5094823;28;20493;-78
2022/07/28 02:42:01;;;;;;;0.10;0.10;;;14.20;65.50;;;;;;5094071;28;20491;-79
2022/07/28 02:44:33;;;;;;;0.20;0.20;;;14.20;65.60;;;;;;5077595;28;20097;-79
2022/07/28 02:47:01;;;;;;;0.10;0.10;;;14.10;65.60;;;;;;5112577;28;20036;-79
2022/07/28 02:49:31;;;;;;;0.47;0.20;;;14.00;65.60;;;;;;5112636;28;20482;-79
2022/07/28 02:51:59;;;;;;;0.20;0.20;;;14.00;65.80;;;;;;5093550;28;20079;-79
2022/07/28 02:54:27;;;;;;;0.22;0.10;;;14.10;65.90;;;;;;5093957;28;20086;-78
2022/07/28 02:56:56;;;;;;;0.80;0.20;;;14.00;65.80;;;;;;5077206;28;20408;-79
2022/07/28 02:59:22;;;;;;;0.25;0.25;;;14.00;65.80;;;;;;5112269;28;20070;-79
2022/07/28 03:01:49;;;;;;;0.38;0.20;;;14.00;65.90;;;;;;5112095;28;20043;-79
2022/07/28 03:04:55;;;;;;;0.20;0.20;;;14.00;65.80;;;;;;5094281;28;20354;-79
2022/07/28 03:07:04;;;;;;;0.52;0.30;;;14.00;65.90;;;;;;5111829;28;20043;-80
2022/07/28 03:09:30;;;;;;;0.30;0.30;;;14.00;65.90;;;;;;5060186;28;20527;-79
2022/07/28 03:11:57;;;;;;;0.22;0.20;;;14.00;65.90;;;;;;5112262;28;20028;-80
2022/07/28 03:14:23;;;;;;;0.28;0.20;;;14.00;65.90;;;;;;5093721;28;20040;-79
2022/07/28 03:16:49;;;;;;;0.60;0.22;;;13.90;66.50;;;;;;5076697;28;20482;-79
2022/07/28 03:19:14;;;;;;;0.35;0.20;;;14.00;66.00;;;;;;5112176;28;20047;-79
2022/07/28 03:21:40;;;;;;;0.13;0.13;;;14.00;66.00;;;;;;5112291;28;20500;-77
2022/07/28 03:24:08;;;;;;;0.20;0.20;;;14.00;66.10;;;;;;5091971;28;20127;-78
2022/07/28 03:26:42;;;;;;;0.55;0.20;;;13.90;66.10;;;;;;5093426;28;20040;-78
2022/07/28 03:29:10;;;;;;;0.10;0.10;;;13.90;66.10;;;;;;5080872;28;20389;-78
2022/07/28 03:31:38;;;;;;;0.10;0.10;;;13.90;66.10;;;;;;5097447;28;20047;-78
2022/07/28 03:34:04;;;;;;;0.10;0.10;;;13.90;66.10;;;;;;5115697;28;20047;-78
2022/07/28 03:36:35;;;;;;;0.17;0.17;;;13.90;66.10;;;;;;5096890;28;20134;-78
2022/07/28 03:39:04;;;;;;;0.20;0.20;;;13.90;66.10;;;;;;5096757;28;20111;-78
2022/07/28 03:41:32;;;;;;;0.63;0.22;;;13.90;66.10;;;;;;5115627;28;20066;-78
2022/07/28 03:43:59;;;;;;;0.10;0.10;;;13.90;66.10;;;;;;5115642;28;20055;-78
2022/07/28 03:46:26;;;;;;;0.20;0.20;;;13.90;66.20;;;;;;5080456;28;20047;-78
2022/07/28 03:48:52;;;;;;;0.25;0.17;;;13.90;66.20;;;;;;5080242;28;20028;-78
2022/07/28 03:51:18;;;;;;;0.77;0.20;;;13.90;66.30;;;;;;5096585;28;20464;-78
2022/07/28 03:53:44;;;;;;;0.32;0.20;;;13.90;66.40;;;;;;5096542;28;20122;-77
2022/07/28 03:56:10;;;;;;;0.10;0.10;;;13.90;66.40;;;;;;5095675;28;20498;-78
2022/07/28 03:58:36;;;;;;;0.20;0.20;;;13.80;66.40;;;;;;5079412;28;20039;-78
2022/07/28 04:01:02;;;;;;;0.15;0.15;;;13.80;66.40;;;;;;5079813;28;20040;-78
2022/07/28 04:03:29;;;;;;;0.22;0.20;;;13.80;66.50;;;;;;5096813;28;20059;-78
2022/07/28 04:05:55;;;;;;;0.20;0.20;;;13.80;66.50;;;;;;5096441;28;20035;-78
2022/07/28 04:08:20;;;;;;;0.20;0.20;;;13.80;66.50;;;;;;5097251;28;20096;-78
2022/07/28 04:10:46;;;;;;;0.25;0.10;;;13.80;66.60;;;;;;5079737;28;20043;-78
2022/07/28 04:13:12;;;;;;;0.10;0.10;;;13.80;66.60;;;;;;5114632;28;20039;-78
2022/07/28 04:15:38;;;;;;;0.30;0.30;;;13.80;66.60;;;;;;5096237;28;20039;-78
2022/07/28 04:18:04;;;;;;;0.20;0.20;;;13.80;66.60;;;;;;5096538;28;20040;-78
2022/07/28 04:20:30;;;;;;;0.30;0.13;;;13.90;66.70;;;;;;5079378;28;20044;-78
2022/07/28 04:22:56;;;;;;;0.10;0.10;;;13.80;66.70;;;;;;5096293;28;20036;-78
2022/07/28 04:25:24;;;;;;;0.30;0.20;;;13.90;66.70;;;;;;5096780;28;20036;-78
2022/07/28 04:27:51;;;;;;;0.22;0.20;;;13.90;66.70;;;;;;5114857;28;20048;-79
2022/07/28 04:30:20;;;;;;;0.10;0.10;;;13.90;66.70;;;;;;5114317;28;20047;-78
2022/07/28 04:32:48;;;;;;;2.00;0.22;;;14.00;66.80;;;;;;5095997;28;20043;-79
2022/07/28 04:35:15;;;;;;;0.20;0.20;;;13.90;66.70;;;;;;5095981;28;20044;-78
2022/07/28 04:37:41;;;;;;;0.20;0.20;;;13.90;66.60;;;;;;5095987;28;20047;-79
2022/07/28 04:40:10;;;;;;;0.20;0.20;;;14.00;66.70;;;;;;5079089;28;20405;-78
2022/07/28 04:42:37;;;;;;;0.10;0.10;;;14.00;66.70;;;;;;5095918;28;20046;-78
2022/07/28 04:45:05;;;;;;;0.73;0.28;;;14.00;66.60;;;;;;5079085;28;20100;-78
2022/07/28 04:47:31;;;;;;;0.40;0.22;;;14.10;66.60;;;;;;5096348;28;20489;-79
2022/07/28 04:49:57;;;;;;;0.20;0.20;;;14.10;66.60;;;;;;5095911;28;20093;-78
2022/07/28 04:52:24;;;;;;;0.20;0.17;;;14.10;66.50;;;;;;5079032;28;20058;-79
2022/07/28 04:54:50;;;;;;;0.20;0.20;;;14.20;66.60;;;;;;5114390;28;20046;-79
2022/07/28 04:57:16;;;;;;;0.32;0.22;;;14.10;66.50;;;;;;5096522;28;20444;-79
2022/07/28 04:59:42;;;;;;;0.40;0.30;;;14.10;66.60;;;;;;5062146;28;20044;-78
2022/07/28 05:02:07;;;;;;;0.15;0.15;;;14.20;66.70;;;;;;5079021;28;20043;-78
2022/07/28 05:04:33;;;;;;;0.38;0.17;;;14.20;66.70;;;;;;5095546;28;20434;-79
2022/07/28 05:06:59;;;;;;;1.00;0.30;;;14.20;66.60;;;;;;5078915;28;20607;-78
2022/07/28 05:09:25;;;;;;;0.30;0.30;;;14.20;66.60;;;;;;5078863;28;20075;-78
2022/07/28 05:11:51;;;;;;;0.28;0.20;;;14.30;66.70;;;;;;5113999;28;20055;-77
2022/07/28 05:14:17;;;;;;;1.52;0.35;;;14.30;66.50;;;;;;5079252;28;20129;-77
2022/07/28 05:16:43;;;;;;;1.75;0.40;;;14.40;66.50;;;;;;5113630;28;20040;-78
2022/07/28 05:19:10;;;;;;;0.63;0.35;;;14.40;66.40;;;;;;5078655;28;20036;-77
2022/07/28 05:21:35;;;;;;;0.70;0.40;;;14.50;66.40;;;;;;5114069;28;20040;-77
2022/07/28 05:24:01;;;;;;;0.30;0.30;;;14.50;66.30;;;;;;5079183;28;20039;-77
2022/07/28 05:26:29;;;;;;;0.17;0.17;;;14.60;66.20;;;;;;5095379;28;20123;-78
2022/07/28 05:28:55;;;;;;;2.17;0.17;;;14.60;66.20;;;;;;5113500;28;20032;-78
2022/07/28 05:31:21;;;;;;;0.20;0.20;;;14.60;66.20;;;;;;5114305;28;20046;-77
2022/07/28 05:33:47;;;;;;;0.30;0.30;;;14.70;66.20;;;;;;5113816;28;20050;-78
2022/07/28 05:36:12;;;;;;;0.70;0.32;;;14.60;66.20;;;;;;5114099;28;20057;-78
2022/07/28 05:38:38;;;;;;;0.20;0.20;;;14.80;66.20;;;;;;5113563;28;20044;-77
2022/07/28 05:41:05;;;;;;;0.30;0.30;;;14.90;66.30;;;;;;5078208;28;20049;-77
2022/07/28 05:43:31;;;;;;;0.40;0.30;;;14.80;66.30;;;;;;5113250;28;20040;-77
2022/07/28 05:45:57;;;;;;;0.50;0.50;;;14.90;66.30;;;;;;5095143;28;20181;-78
2022/07/28 05:48:23;;;;;;;0.13;0.13;;;14.90;66.20;;;;;;5095500;28;20126;-77
2022/07/28 05:50:50;;;;;;;0.88;0.45;;;15.00;66.10;;;;;;5119623;28;20043;-78
2022/07/28 05:53:18;;;;;;;0.77;0.50;;;15.00;66.10;;;;;;5077950;28;20032;-78
2022/07/28 05:55:43;;;;;;;0.20;0.20;;;15.00;66.00;;;;;;5098925;28;20046;-77
2022/07/28 05:58:09;;;;;;;0.45;0.30;;;15.00;66.10;;;;;;5095361;28;20130;-78
2022/07/28 06:00:35;;;;;;;0.43;0.28;;;15.10;66.10;;;;;;5113007;28;20043;-78
2022/07/28 06:03:01;;;;;;;0.68;0.35;;;15.00;66.10;;;;;;5077339;28;20089;-78
2022/07/28 06:05:29;;;;;;;0.82;0.40;;;15.10;66.10;;;;;;5113502;28;20039;-78
2022/07/28 06:07:55;;;;;;;0.20;0.20;;;15.20;66.10;;;;;;5112718;28;20043;-79
2022/07/28 06:10:23;;;;;;;0.20;0.20;;;15.20;66.10;;;;;;5112749;28;20118;-77
2022/07/28 06:12:53;;;;;;;0.30;0.30;;;15.20;66.00;;;;;;5094809;28;20043;-77
2022/07/28 06:15:23;;;;;;;0.47;0.20;;;15.20;66.00;;;;;;5094494;28;20118;-77
2022/07/28 06:17:51;;;;;;;0.28;0.28;;;15.40;66.10;;;;;;5112694;28;20032;-77
2022/07/28 06:20:20;;;;;;;0.20;0.20;;;15.30;66.00;;;;;;5095378;28;20048;-77
2022/07/28 06:22:48;;;;;;;0.40;0.15;;;15.30;65.90;;;;;;5094489;28;20184;-77
2022/07/28 06:25:16;;;;;;;0.75;0.30;;;15.50;65.90;;;;;;5094166;28;20042;-77
2022/07/28 06:27:43;;;;;;;0.20;0.20;;;15.60;65.80;;;;;;5094391;28;20068;-76
2022/07/28 06:30:09;;;;;;;0.20;0.20;;;15.50;65.60;;;;;;5094219;28;20489;-77
2022/07/28 06:32:35;;;;;;;0.10;0.10;;;15.60;65.60;;;;;;5112717;28;20049;-77
2022/07/28 06:35:01;;;;;;;0.22;0.22;;;15.70;65.60;;;;;;5112705;28;20101;-76
2022/07/28 06:37:27;;;;;;;0.30;0.30;;;15.70;65.40;;;;;;5092634;28;20044;-77
2022/07/28 06:39:52;;;;;;;0.95;0.30;;;15.80;65.40;;;;;;5094063;28;20067;-77
2022/07/28 06:42:18;;;;;;;0.25;0.25;;;16.00;65.30;;;;;;5094655;28;20085;-77
2022/07/28 06:44:44;;;;;;;0.20;0.20;;;16.10;65.00;;;;;;5112488;28;20043;-77
2022/07/28 06:47:10;;;;;;;1.63;0.40;;;16.20;64.70;;;;;;5092221;28;20044;-77
2022/07/28 06:49:36;;;;;;;0.30;0.30;;;16.40;64.50;;;;;;5093883;28;20469;-77
2022/07/28 06:52:02;;;;;;;0.25;0.20;;;16.50;64.30;;;;;;5093980;28;20096;-77
2022/07/28 06:54:28;;;;;;;0.25;0.20;;;16.50;63.90;;;;;;5093978;28;20118;-77
2022/07/28 06:56:53;;;;;;;0.30;0.30;;;16.70;63.90;;;;;;5094281;28;20089;-76
2022/07/28 06:59:19;;;;;;;0.20;0.20;;;16.70;63.90;;;;;;5093222;28;20040;-77
2022/07/28 07:01:45;;;;;;;0.20;0.20;;;16.80;63.80;;;;;;5077204;28;20040;-76
2022/07/28 07:04:10;;;;;;;0.20;0.20;;;16.90;63.80;;;;;;5116386;28;20583;-76
2022/07/28 07:06:36;;;;;;;0.52;0.30;;;16.80;63.70;;;;;;5080770;28;20092;-76
2022/07/28 07:09:02;;;;;;;0.82;0.32;;;16.90;63.80;;;;;;5097652;28;20043;-77
2022/07/28 07:11:28;;;;;;;0.20;0.20;;;17.00;63.90;;;;;;5097578;28;20036;-76
2022/07/28 07:13:53;;;;;;;0.43;0.30;;;17.00;63.90;;;;;;5116340;28;20465;-76
2022/07/28 07:16:19;;;;;;;0.70;0.28;;;17.00;63.80;;;;;;5098215;28;20036;-77
2022/07/28 07:18:47;;;;;;;0.45;0.20;;;17.20;63.80;;;;;;5097426;28;20048;-76
2022/07/28 07:21:13;;;;;;;0.52;0.40;;;17.20;63.70;;;;;;5116156;28;20067;-79
2022/07/28 07:23:39;;;;;;;0.10;0.10;;;17.30;63.60;;;;;;5115630;28;20110;-77
2022/07/28 07:26:04;;;;;;;0.32;0.25;;;17.30;63.40;;;;;;5097485;28;20070;-77
2022/07/28 07:28:30;;;;;;;0.30;0.20;;;17.40;63.20;;;;;;5080305;28;20118;-78
2022/07/28 07:30:56;;;;;;;0.65;0.40;;;17.50;63.10;;;;;;5097832;28;20039;-78
2022/07/28 07:33:22;;;;;;;0.30;0.30;;;17.60;63.10;;;;;;5115524;28;20044;-77
2022/07/28 07:35:48;;;;;;;1.00;0.40;;;17.70;62.90;;;;;;5097067;28;20043;-79
2022/07/28 07:38:14;;;;;;;0.20;0.20;;;17.80;62.70;;;;;;5096844;28;20088;-78
2022/07/28 07:40:40;;;;;;;0.20;0.20;;;17.90;62.70;;;;;;5096766;28;20048;-78
2022/07/28 07:43:05;;;;;;;0.45;0.20;;;17.90;62.50;;;;;;5115493;28;20080;-78
2022/07/28 07:45:33;;;;;;;0.13;0.13;;;18.10;62.50;;;;;;5096817;28;20504;-77
2022/07/28 07:47:59;;;;;;;0.43;0.20;;;18.00;62.40;;;;;;5080740;28;20069;-79
2022/07/28 07:50:25;;;;;;;0.13;0.13;;;18.10;62.50;;;;;;5109038;28;20047;-80
2022/07/28 07:52:51;;;;;;;0.30;0.20;;;18.20;62.30;;;;;;5107398;28;20071;-80
2022/07/28 07:55:17;;;;;;;0.25;0.25;;;18.30;62.10;;;;;;5094940;28;20048;-78
2022/07/28 07:57:43;;;;;;;0.85;0.35;;;18.50;62.00;;;;;;5111878;28;20038;-78
2022/07/28 08:00:10;;;;;;;0.38;0.30;;;18.60;61.80;;;;;;5111452;28;20051;-77
2022/07/28 08:02:40;;;;;;;0.93;0.30;;;18.70;61.50;;;;;;5108517;28;20064;-76
2022/07/28 08:05:08;;;;;;;0.38;0.28;;;18.80;61.30;;;;;;5106650;28;20055;-79
2022/07/28 08:07:34;;;;;;;0.10;0.10;;;18.80;61.20;;;;;;5114603;28;20462;-80
2022/07/28 08:10:00;;;;;;;0.28;0.28;;;18.80;61.20;;;;;;5085528;28;20108;-80
2022/07/28 08:12:26;;;;;;;0.30;0.28;;;18.90;61.20;;;;;;5107536;28;20039;-81
2022/07/28 08:14:53;;;;;;;0.20;0.20;;;18.90;61.10;;;;;;5130366;28;20031;-78
2022/07/28 08:17:19;;;;;;;0.28;0.28;;;19.00;61.00;;;;;;5094735;28;20035;-78
2022/07/28 08:19:44;;;;;;;0.55;0.20;;;19.10;60.90;;;;;;5109907;28;20409;-80
2022/07/28 08:22:10;;;;;;;0.13;0.13;;;19.40;60.70;;;;;;5124258;28;20039;-78
2022/07/28 08:24:36;;;;;;;0.20;0.20;;;19.70;60.30;;;;;;5127132;28;20035;-78
2022/07/28 08:27:03;;;;;;;0.20;0.20;;;19.90;59.70;;;;;;5104737;28;20036;-78
2022/07/28 08:29:29;;;;;;;0.40;0.20;;;20.10;59.20;;;;;;5107081;28;20059;-77
2022/07/28 08:31:54;;;;;;;0.88;0.28;;;20.20;59.10;;;;;;5091763;28;20027;-77
2022/07/28 08:34:20;;;;;;;0.38;0.20;;;20.40;59.10;;;;;;5103122;28;20051;-77
2022/07/28 08:36:46;;;;;;;0.55;0.30;;;20.60;58.80;;;;;;5101760;28;20135;-76
2022/07/28 08:39:12;;;;;;;0.30;0.30;;;20.80;58.60;;;;;;5090374;28;20040;-78
2022/07/28 08:42:17;;;;;;;0.90;0.30;;;20.90;58.30;;;;;;5100789;28;20118;-79
2022/07/28 08:44:53;;;;;;;0.22;0.20;;;21.00;58.00;;;;;;5118731;28;20043;-78
2022/07/28 08:47:19;;;;;;;0.22;0.22;;;20.90;58.10;;;;;;5083264;28;20027;-79
2022/07/28 08:49:47;;;;;;;0.28;0.28;;;20.90;58.30;;;;;;5118307;28;20043;-78
2022/07/28 08:52:13;;;;;;;0.20;0.20;;;21.00;58.40;;;;;;5100205;28;20099;-79
2022/07/28 08:54:44;;;;;;;0.30;0.30;;;20.80;58.10;;;;;;5117728;28;20162;-79
2022/07/28 08:57:17;;;;;;;0.35;0.30;;;21.00;58.10;;;;;;5117442;28;20044;-78
2022/07/28 08:59:45;;;;;;;0.30;0.30;;;21.00;58.10;;;;;;5116347;28;20032;-78
2022/07/28 09:02:12;;;;;;;0.20;0.20;;;21.20;58.00;;;;;;5083951;28;20048;-79
2022/07/28 09:04:38;;;;;;;0.25;0.20;;;21.40;57.70;;;;;;5097644;28;20042;-77
2022/07/28 09:07:05;;;;;;;0.68;0.30;;;21.60;57.20;;;;;;5098751;28;20547;-77
2022/07/28 09:09:32;;;;;;;0.30;0.30;;;21.80;57.10;;;;;;5062561;28;20040;-77
2022/07/28 09:12:01;;;;;;;0.20;0.20;;;21.90;56.90;;;;;;5120708;28;20040;-79
2022/07/28 09:14:27;;;;;;;0.20;0.20;;;22.00;56.70;;;;;;5122644;28;20067;-79
2022/07/28 09:16:54;;;;;;;0.20;0.20;;;22.10;56.70;;;;;;5116033;28;20035;-79
2022/07/28 09:19:20;;;;;;;0.20;0.20;;;22.00;56.80;;;;;;5114439;28;20036;-79
2022/07/28 09:21:45;;;;;;;0.60;0.20;;;21.80;57.10;;;;;;5094652;28;20459;-78
2022/07/28 09:24:32;;;;;;;0.35;0.20;;;21.70;57.60;;;;;;5095309;28;20036;-79
2022/07/28 09:27:01;;;;;;;0.22;0.22;;;21.70;57.70;;;;;;5079370;28;20039;-78
2022/07/28 09:29:27;;;;;;;0.20;0.20;;;21.80;57.60;;;;;;5095895;28;20109;-78
2022/07/28 09:31:53;;;;;;;0.43;0.20;;;21.90;57.50;;;;;;5096070;28;20048;-79
2022/07/28 09:34:19;;;;;;;0.30;0.30;;;22.00;57.20;;;;;;5082861;28;20035;-80
2022/07/28 09:36:45;;;;;;;0.30;0.30;;;22.10;56.90;;;;;;5101934;28;20044;-78
2022/07/28 09:39:26;;;;;;;0.20;0.20;;;22.10;56.80;;;;;;5113353;28;20041;-78
2022/07/28 09:41:54;;;;;;;;;;;22.20;56.70;;;;;;5095814;28;20050;-78
2022/07/28 09:44:21;;;;;;;0.57;0.20;;;22.30;56.50;;;;;;5077257;28;19912;-78
2022/07/28 09:46:47;;;;;;;0.25;0.25;;;22.40;56.40;;;;;;5113268;28;20043;-78
2022/07/28 09:49:13;;;;;;;0.57;0.30;;;22.40;56.40;;;;;;5078377;28;20470;-77
2022/07/28 09:51:39;;;;;;;0.35;0.20;;;22.50;56.00;;;;;;5113145;28;20058;-77
2022/07/28 09:54:11;;;;;;;0.47;0.30;;;22.60;55.90;;;;;;5113622;28;20039;-77
2022/07/28 09:56:43;;;;;;;0.55;0.30;;;22.60;55.70;;;;;;5113394;28;20055;-78
2022/07/28 09:59:10;;;;;;;0.32;0.20;;;22.60;55.60;;;;;;5077561;28;20047;-78
2022/07/28 10:01:51;;;;;;;0.25;0.20;;;22.60;55.60;;;;;;5094708;28;20051;-78
2022/07/28 10:04:30;;;;;;;0.28;0.28;;;22.60;55.60;;;;;;5112928;28;20043;-77
2022/07/28 10:07:08;;;;;;;0.55;0.30;;;22.70;55.40;;;;;;5113466;28;20039;-78
2022/07/28 10:09:36;;;;;;;0.17;0.17;;;22.80;55.20;;;;;;5093139;28;20486;-78
2022/07/28 10:12:20;;;;;;;0.25;0.25;;;22.80;55.10;;;;;;5112859;28;20035;-78
2022/07/28 10:14:50;;;;;;;0.20;0.20;;;22.90;55.00;;;;;;5092680;28;20040;-79
2022/07/28 10:17:29;;;;;;;0.30;0.30;;;23.00;54.90;;;;;;5095668;28;20039;-78
2022/07/28 10:19:57;;;;;;;0.45;0.20;;;23.10;54.70;;;;;;5094849;28;20565;-78
2022/07/28 10:22:26;;;;;;;0.30;0.20;;;23.20;54.50;;;;;;5113866;28;20506;-78
2022/07/28 10:24:53;;;;;;;1.40;0.20;;;23.20;54.20;;;;;;5094848;28;20039;-77
2022/07/28 10:27:23;;;;;;;0.20;0.20;;;23.10;54.30;;;;;;5112692;28;20078;-78
2022/07/28 10:29:55;;;;;;;0.20;0.20;;;23.10;54.50;;;;;;5094652;28;20127;-78
2022/07/28 10:32:21;;;;;;;0.20;0.20;;;23.10;54.40;;;;;;5112714;28;20039;-78
2022/07/28 10:34:54;;;;;;;0.10;0.10;;;23.10;54.30;;;;;;5094250;28;20554;-78
2022/07/28 10:37:24;;;;;;;0.20;0.20;;;23.10;54.20;;;;;;5096693;28;20043;-77
2022/07/28 10:40:02;;;;;;;0.40;0.20;;;23.20;54.00;;;;;;5097890;28;20040;-77
2022/07/28 10:42:28;;;;;;;0.30;0.20;;;23.20;53.90;;;;;;5116339;28;20042;-77
2022/07/28 10:44:56;;;;;;;0.10;0.10;;;23.20;54.00;;;;;;5097656;28;20075;-78
2022/07/28 10:47:23;;;;;;;0.20;0.20;;;23.20;54.00;;;;;;5116677;28;20047;-79
2022/07/28 10:49:49;;;;;;;0.28;0.28;;;23.30;53.60;;;;;;5098568;28;20035;-77
2022/07/28 10:52:17;;;;;;;0.30;0.30;;;23.30;53.40;;;;;;5116014;28;20047;-78
2022/07/28 10:54:59;;;;;;;0.55;0.30;;;23.50;53.30;;;;;;5097777;28;20042;-78
2022/07/28 10:57:25;;;;;;;0.40;0.30;;;23.40;53.10;;;;;;5116123;28;20046;-78
2022/07/28 11:00:09;;;;;;;0.22;0.22;;;23.40;53.20;;;;;;5116305;28;20063;-78
2022/07/28 11:02:55;;;;;;;0.25;0.22;;;23.30;52.90;;;;;;5098550;28;20485;-77
2022/07/28 11:05:38;;;;;;;0.20;0.20;;;23.30;52.90;;;;;;5116333;28;20046;-76
2022/07/28 11:08:09;;;;;;;0.20;0.20;;;23.50;52.90;;;;;;5097578;28;20043;-77
2022/07/28 11:10:45;;;;;;;0.20;0.20;;;23.40;52.90;;;;;;5115883;28;20039;-77
2022/07/28 11:13:36;;;;;;;0.10;0.10;;;23.40;52.70;;;;;;5116082;28;20044;-77
2022/07/28 11:16:20;;;;;;;0.25;0.25;;;23.50;52.70;;;;;;5097413;28;20054;-77
2022/07/28 11:19:06;;;;;;;0.20;0.20;;;23.70;52.50;;;;;;5115953;28;20044;-76
2022/07/28 11:21:33;;;;;;;0.20;0.20;;;23.80;52.30;;;;;;5099702;28;20118;-77
2022/07/28 11:23:59;;;;;;;0.30;0.25;;;23.90;52.20;;;;;;5084558;28;20036;-76
2022/07/28 11:26:29;;;;;;;0.20;0.20;;;23.90;52.00;;;;;;5122636;28;20443;-77
2022/07/28 11:29:15;;;;;;;0.20;0.20;;;24.00;51.80;;;;;;5122978;28;20055;-77
2022/07/28 11:31:58;;;;;;;0.20;0.20;;;24.00;51.80;;;;;;5091460;28;20047;-77
2022/07/28 11:34:25;;;;;;;0.20;0.20;;;23.90;52.40;;;;;;5120220;28;20040;-77
2022/07/28 11:37:01;;;;;;;0.43;0.20;;;24.00;51.80;;;;;;5123126;28;20039;-77
2022/07/28 11:39:29;;;;;;;0.75;0.20;;;24.00;51.60;;;;;;5109777;28;20036;-76
2022/07/28 11:41:55;;;;;;;0.20;0.20;;;24.00;51.80;;;;;;5089169;28;20040;-77
2022/07/28 11:44:30;;;;;;;0.80;0.35;;;23.80;51.80;;;;;;5110480;28;20110;-77
2022/07/28 11:47:16;;;;;;;0.22;0.22;;;23.80;51.80;;;;;;5127924;28;20047;-77
2022/07/28 11:49:43;;;;;;;0.20;0.20;;;23.70;51.70;;;;;;5108153;28;20039;-77
2022/07/28 11:52:13;;;;;;;0.20;0.20;;;23.70;51.90;;;;;;5127974;28;20093;-77
2022/07/28 11:54:40;;;;;;;0.30;0.30;;;23.70;51.90;;;;;;5089945;28;20028;-77
2022/07/28 11:57:10;;;;;;;0.40;0.20;;;23.70;51.80;;;;;;5127946;28;20043;-77
2022/07/28 11:59:40;;;;;;;;;;;23.80;51.70;;;;;;5083161;28;20040;-78
2022/07/28 12:02:06;;;;;;;0.75;0.30;;;23.90;51.60;;;;;;5115556;28;19951;-78
2022/07/28 12:04:32;;;;;;;0.20;0.20;;;23.90;51.40;;;;;;5115111;28;20516;-78
2022/07/28 12:06:59;;;;;;;0.20;0.20;;;23.90;51.40;;;;;;5115341;28;20118;-79
2022/07/28 12:09:31;;;;;;;0.30;0.30;;;23.80;51.40;;;;;;5097533;28;20042;-78
2022/07/28 12:11:57;;;;;;;0.10;0.10;;;23.90;51.40;;;;;;5115454;28;20032;-79
2022/07/28 12:14:27;;;;;;;0.25;0.20;;;24.00;51.20;;;;;;5097071;28;20040;-78
2022/07/28 12:16:54;;;;;;;0.20;0.20;;;23.90;51.20;;;;;;5114698;28;20063;-79
2022/07/28 12:19:20;;;;;;;0.40;0.20;;;24.00;51.20;;;;;;5114597;28;20040;-78
2022/07/28 12:21:54;;;;;;;0.20;0.20;;;24.00;51.10;;;;;;5096663;28;20374;-80
2022/07/28 12:24:28;;;;;;;0.30;0.20;;;24.00;50.90;;;;;;5096712;28;20039;-79
2022/07/28 12:26:56;;;;;;;0.22;0.22;;;24.10;50.80;;;;;;5096182;28;20036;-79
2022/07/28 12:29:22;;;;;;;0.30;0.30;;;24.10;50.80;;;;;;5096604;28;20081;-78
2022/07/28 12:31:55;;;;;;;0.47;0.20;;;24.10;50.90;;;;;;5096934;28;20047;-78
2022/07/28 12:34:22;;;;;;;0.20;0.20;;;24.00;50.90;;;;;;5114530;28;20122;-78
2022/07/28 12:36:51;;;;;;;0.75;0.25;;;24.00;51.00;;;;;;5114929;28;20092;-78
2022/07/28 12:39:18;;;;;;;0.20;0.20;;;24.10;50.90;;;;;;5096983;28;20044;-77
2022/07/28 12:41:44;;;;;;;0.40;0.30;;;24.10;50.60;;;;;;5096524;28;20035;-78
2022/07/28 12:44:10;;;;;;;0.20;0.20;;;24.40;50.50;;;;;;5095992;28;20047;-76
2022/07/28 12:46:36;;;;;;;0.30;0.30;;;24.50;50.10;;;;;;5114025;28;20036;-78
2022/07/28 12:49:02;;;;;;;0.25;0.25;;;24.60;50.00;;;;;;5096157;28;20416;-79
2022/07/28 12:51:30;;;;;;;0.25;0.25;;;24.70;49.70;;;;;;5079112;28;20051;-79
2022/07/28 12:53:56;;;;;;;0.20;0.20;;;24.90;49.60;;;;;;5096074;28;20085;-78
2022/07/28 12:56:22;;;;;;;0.20;0.20;;;24.80;49.90;;;;;;5114092;28;20035;-79
2022/07/28 12:58:53;;;;;;;0.30;0.30;;;24.60;49.70;;;;;;5114017;28;20043;-79